createdAt,value
2023-01-21T09:06:03.913Z,99.90
2023-01-21T09:11:02.282Z,99.90
2023-01-21T09:15:55.794Z,99.90
2023-01-21T09:20:50.137Z,99.90
2023-01-21T09:25:45.364Z,99.90
2023-01-21T09:30:39.107Z,99.90
2023-01-21T09:35:32.766Z,99.90
2023-01-21T09:40:26.547Z,99.90
2023-01-21T09:45:23.025Z,99.90
2023-01-21T09:50:21.727Z,99.90
2023-01-21T09:55:18.692Z,99.90
2023-01-21T10:00:32.444Z,99.90
2023-01-21T10:06:06.198Z,99.90
2023-01-21T10:11:12.340Z,99.90
2023-01-21T10:16:15.484Z,99.90
2023-01-21T10:21:17.139Z,99.90
2023-01-21T10:26:14.783Z,99.90
2023-01-21T10:31:22.812Z,99.90
2023-01-21T10:36:47.974Z,99.90
2023-01-21T10:41:55.941Z,99.90
2023-01-21T10:46:56.398Z,99.90
2023-01-21T10:51:57.461Z,99.90
2023-01-21T10:57:02.420Z,99.90
2023-01-21T11:02:19.371Z,99.90
2023-01-21T11:07:23.025Z,99.90
2023-01-21T11:12:24.950Z,99.90
2023-01-21T11:17:35.608Z,98.50
2023-01-21T11:22:32.937Z,97.20
2023-01-21T11:27:34.450Z,95.80
2023-01-21T11:32:35.870Z,95.30
2023-01-21T11:37:32.003Z,93.50
2023-01-21T11:42:26.059Z,92.80
2023-01-21T11:47:33.953Z,91.90
2023-01-21T11:52:29.902Z,91.60
2023-01-21T11:57:29.957Z,91.10
2023-01-21T12:02:27.297Z,91.40
2023-01-21T12:07:25.864Z,91.40
2023-01-21T12:12:41.748Z,90.90
2023-01-21T12:17:51.182Z,90.20
2023-01-21T12:23:00.703Z,90.50
2023-01-21T12:28:11.367Z,90.20
2023-01-21T12:33:15.172Z,91.50
2023-01-21T12:38:19.603Z,90.70
2023-01-21T12:43:19.910Z,90.60
2023-01-21T12:48:20.035Z,91.10
2023-01-21T12:53:37.465Z,90.40
2023-01-21T12:58:34.173Z,90.80
2023-01-21T13:03:34.330Z,90.60
2023-01-21T13:08:47.445Z,90.90
2023-01-21T13:13:47.120Z,91.10
2023-01-21T13:18:44.490Z,92.10
2023-01-21T13:23:46.916Z,91.80
2023-01-21T13:28:47.467Z,91.50
2023-01-21T13:33:54.835Z,91.60
2023-01-21T13:39:00.355Z,92.70
2023-01-21T13:44:21.690Z,93.60
2023-01-21T13:49:55.885Z,93.50
2023-01-21T13:55:15.911Z,93.30
2023-01-21T14:00:16.987Z,94.00
2023-01-21T14:05:18.340Z,94.80
2023-01-21T14:10:19.772Z,94.20
2023-01-21T14:15:32.821Z,94.10
2023-01-21T14:21:09.063Z,94.70
2023-01-21T14:26:15.080Z,95.10
2023-01-21T14:31:13.654Z,94.90
